sensor_id;sensor_type;location;lat;lon;timestamp;pressure;altitude;pressure_sealevel;temperature;humidity
53635;BME280;39542;-34.932;138.594;2023-04-02T00:00:17;101502.79;;;19.79;48.56
53635;BME280;39542;-34.932;138.594;2023-04-02T00:01:36;101502.68;;;19.76;48.68
53635;BME280;39542;-34.932;138.594;2023-04-02T00:02:29;101501.01;;;19.79;48.65
53635;BME280;39542;-34.932;138.594;2023-04-02T00:03:06;101500.85;;;19.79;48.62
53635;BME280;39542;-34.932;138.594;2023-04-02T00:04:45;101500.00;;;19.78;48.68
53635;BME280;39542;-34.932;138.594;2023-04-02T00:05:55;101497.69;;;19.72;48.86
53635;BME280;39542;-34.932;138.594;2023-04-02T00:06:35;101497.03;;;19.73;48.78
53635;BME280;39542;-34.932;138.594;2023-04-02T00:07:28;101494.44;;;19.74;48.77
53635;BME280;39542;-34.932;138.594;2023-04-02T00:08:16;101498.97;;;19.73;48.90
53635;BME280;39542;-34.932;138.594;2023-04-02T00:08:51;101499.48;;;19.72;49.04
53635;BME280;39542;-34.932;138.594;2023-04-02T00:09:35;101500.22;;;19.73;49.01
53635;BME280;39542;-34.932;138.594;2023-04-02T00:10:27;101500.59;;;19.73;48.91
53635;BME280;39542;-34.932;138.594;2023-04-02T00:11:02;101499.91;;;19.73;48.83
53635;BME280;39542;-34.932;138.594;2023-04-02T00:11:38;101500.38;;;19.73;48.83
53635;BME280;39542;-34.932;138.594;2023-04-02T00:12:17;101498.25;;;19.73;48.96
53635;BME280;39542;-34.932;138.594;2023-04-02T00:13:01;101499.87;;;19.70;48.91
53635;BME280;39542;-34.932;138.594;2023-04-02T00:13:39;101500.72;;;19.70;49.04
53635;BME280;39542;-34.932;138.594;2023-04-02T00:14:18;101496.82;;;19.72;48.97
53635;BME280;39542;-34.932;138.594;2023-04-02T00:14:55;101497.77;;;19.74;48.87
53635;BME280;39542;-34.932;138.594;2023-04-02T00:15:30;101495.35;;;19.73;48.90
53635;BME280;39542;-34.932;138.594;2023-04-02T00:16:07;101494.67;;;19.75;49.05
53635;BME280;39542;-34.932;138.594;2023-04-02T00:16:44;101495.20;;;19.76;48.88
53635;BME280;39542;-34.932;138.594;2023-04-02T00:17:19;101493.40;;;19.76;48.88
53635;BME280;39542;-34.932;138.594;2023-04-02T00:17:54;101496.45;;;19.75;48.97
53635;BME280;39542;-34.932;138.594;2023-04-02T00:18:29;101496.69;;;19.77;48.88
53635;BME280;39542;-34.932;138.594;2023-04-02T00:19:07;101493.43;;;19.77;48.84
53635;BME280;39542;-34.932;138.594;2023-04-02T00:19:51;101493.24;;;19.76;48.82
53635;BME280;39542;-34.932;138.594;2023-04-02T00:20:27;101492.65;;;19.73;49.02
53635;BME280;39542;-34.932;138.594;2023-04-02T00:21:09;101487.68;;;19.74;48.97
53635;BME280;39542;-34.932;138.594;2023-04-02T00:21:46;101488.38;;;19.73;48.96
53635;BME280;39542;-34.932;138.594;2023-04-02T00:22:24;101485.95;;;19.73;49.03
53635;BME280;39542;-34.932;138.594;2023-04-02T00:22:59;101485.53;;;19.75;48.99
53635;BME280;39542;-34.932;138.594;2023-04-02T00:23:35;101486.17;;;19.75;49.06
53635;BME280;39542;-34.932;138.594;2023-04-02T00:24:15;101487.78;;;19.75;49.07
53635;BME280;39542;-34.932;138.594;2023-04-02T00:24:53;101490.40;;;19.76;48.91
53635;BME280;39542;-34.932;138.594;2023-04-02T00:25:29;101486.26;;;19.75;48.89
53635;BME280;39542;-34.932;138.594;2023-04-02T00:26:20;101482.78;;;19.77;48.88
53635;BME280;39542;-34.932;138.594;2023-04-02T00:26:55;101481.82;;;19.74;48.93
53635;BME280;39542;-34.932;138.594;2023-04-02T00:27:31;101482.81;;;19.75;48.91
53635;BME280;39542;-34.932;138.594;2023-04-02T00:28:05;101481.01;;;19.74;48.88
53635;BME280;39542;-34.932;138.594;2023-04-02T00:28:40;101483.68;;;19.74;48.95
53635;BME280;39542;-34.932;138.594;2023-04-02T00:29:16;101482.21;;;19.75;48.97
53635;BME280;39542;-34.932;138.594;2023-04-02T00:29:53;101482.54;;;19.76;48.93
53635;BME280;39542;-34.932;138.594;2023-04-02T00:30:28;101482.45;;;19.73;49.10
53635;BME280;39542;-34.932;138.594;2023-04-02T00:31:02;101483.28;;;19.73;49.04
53635;BME280;39542;-34.932;138.594;2023-04-02T00:31:41;101483.94;;;19.76;49.05
53635;BME280;39542;-34.932;138.594;2023-04-02T00:32:21;101479.43;;;19.75;49.03
53635;BME280;39542;-34.932;138.594;2023-04-02T00:32:56;101478.00;;;19.72;49.03
53635;BME280;39542;-34.932;138.594;2023-04-02T00:33:32;101477.79;;;19.74;49.02
53635;BME280;39542;-34.932;138.594;2023-04-02T00:34:13;101480.95;;;19.74;49.03
53635;BME280;39542;-34.932;138.594;2023-04-02T00:34:48;101479.86;;;19.74;49.27
53635;BME280;39542;-34.932;138.594;2023-04-02T00:35:26;101479.31;;;19.79;48.98
53635;BME280;39542;-34.932;138.594;2023-04-02T00:36:01;101479.84;;;19.75;48.96
53635;BME280;39542;-34.932;138.594;2023-04-02T00:36:39;101480.20;;;19.74;49.19
53635;BME280;39542;-34.932;138.594;2023-04-02T00:37:17;101478.12;;;19.76;49.04
53635;BME280;39542;-34.932;138.594;2023-04-02T00:37:53;101476.57;;;19.76;49.14
53635;BME280;39542;-34.932;138.594;2023-04-02T00:38:31;101477.76;;;19.75;49.15
53635;BME280;39542;-34.932;138.594;2023-04-02T00:39:13;101479.79;;;19.74;49.17
53635;BME280;39542;-34.932;138.594;2023-04-02T00:39:49;101480.89;;;19.77;49.02
53635;BME280;39542;-34.932;138.594;2023-04-02T00:40:26;101477.86;;;19.74;49.03
53635;BME280;39542;-34.932;138.594;2023-04-02T00:41:04;101480.74;;;19.75;49.01
53635;BME280;39542;-34.932;138.594;2023-04-02T00:41:39;101478.48;;;19.72;49.14
53635;BME280;39542;-34.932;138.594;2023-04-02T00:42:14;101480.47;;;19.75;49.32
53635;BME280;39542;-34.932;138.594;2023-04-02T00:42:49;101481.74;;;19.76;49.19
53635;BME280;39542;-34.932;138.594;2023-04-02T00:43:25;101481.31;;;19.74;49.07
53635;BME280;39542;-34.932;138.594;2023-04-02T00:44:01;101480.97;;;19.72;49.14
53635;BME280;39542;-34.932;138.594;2023-04-02T00:44:39;101479.37;;;19.72;48.98
53635;BME280;39542;-34.932;138.594;2023-04-02T00:45:21;101477.14;;;19.70;49.03
53635;BME280;39542;-34.932;138.594;2023-04-02T00:45:59;101480.62;;;19.73;49.12
53635;BME280;39542;-34.932;138.594;2023-04-02T00:46:40;101477.06;;;19.70;49.34
53635;BME280;39542;-34.932;138.594;2023-04-02T00:47:19;101478.05;;;19.71;49.15
53635;BME280;39542;-34.932;138.594;2023-04-02T00:47:55;101475.82;;;19.70;49.21
53635;BME280;39542;-34.932;138.594;2023-04-02T00:48:40;101474.21;;;19.72;49.06
53635;BME280;39542;-34.932;138.594;2023-04-02T00:49:24;101475.00;;;19.74;49.06
53635;BME280;39542;-34.932;138.594;2023-04-02T00:50:06;101474.82;;;19.74;49.05
53635;BME280;39542;-34.932;138.594;2023-04-02T00:50:51;101472.82;;;19.71;49.07
53635;BME280;39542;-34.932;138.594;2023-04-02T00:51:31;101471.20;;;19.73;49.03
53635;BME280;39542;-34.932;138.594;2023-04-02T00:52:09;101472.98;;;19.70;49.04
53635;BME280;39542;-34.932;138.594;2023-04-02T00:52:47;101471.60;;;19.70;49.03
53635;BME280;39542;-34.932;138.594;2023-04-02T00:53:25;101472.53;;;19.70;49.18
53635;BME280;39542;-34.932;138.594;2023-04-02T00:54:03;101471.36;;;19.73;49.11
53635;BME280;39542;-34.932;138.594;2023-04-02T00:54:41;101472.16;;;19.74;49.16
53635;BME280;39542;-34.932;138.594;2023-04-02T00:55:19;101470.54;;;19.73;49.16
53635;BME280;39542;-34.932;138.594;2023-04-02T00:55:54;101470.11;;;19.74;49.09
53635;BME280;39542;-34.932;138.594;2023-04-02T00:56:34;101470.78;;;19.74;49.02
53635;BME280;39542;-34.932;138.594;2023-04-02T00:57:15;101469.45;;;19.75;49.01
53635;BME280;39542;-34.932;138.594;2023-04-02T00:57:58;101467.72;;;19.72;49.02
53635;BME280;39542;-34.932;138.594;2023-04-02T00:58:35;101468.00;;;19.72;49.09
53635;BME280;39542;-34.932;138.594;2023-04-02T00:59:21;101470.01;;;19.72;49.06
53635;BME280;39542;-34.932;138.594;2023-04-02T00:59:59;101469.49;;;19.75;49.14
53635;BME280;39542;-34.932;138.594;2023-04-02T01:00:36;101467.62;;;19.71;49.17
53635;BME280;39542;-34.932;138.594;2023-04-02T01:01:17;101467.53;;;19.72;49.17
53635;BME280;39542;-34.932;138.594;2023-04-02T01:01:56;101465.07;;;19.72;49.16
53635;BME280;39542;-34.932;138.594;2023-04-02T01:02:32;101467.73;;;19.74;49.20
53635;BME280;39542;-34.932;138.594;2023-04-02T01:03:39;101464.94;;;19.74;49.23
53635;BME280;39542;-34.932;138.594;2023-04-02T01:04:29;101465.82;;;19.76;49.18
53635;BME280;39542;-34.932;138.594;2023-04-02T01:05:21;101465.83;;;19.74;49.37
53635;BME280;39542;-34.932;138.594;2023-04-02T01:05:59;101463.40;;;19.74;49.29
53635;BME280;39542;-34.932;138.594;2023-04-02T01:06:36;101464.36;;;19.75;49.21
53635;BME280;39542;-34.932;138.594;2023-04-02T01:07:12;101464.26;;;19.73;49.30
53635;BME280;39542;-34.932;138.594;2023-04-02T01:07:58;101462.40;;;19.76;49.25
53635;BME280;39542;-34.932;138.594;2023-04-02T01:08:45;101463.59;;;19.76;49.19
53635;BME280;39542;-34.932;138.594;2023-04-02T01:09:29;101463.48;;;19.74;49.25
53635;BME280;39542;-34.932;138.594;2023-04-02T01:10:19;101463.26;;;19.73;49.50
53635;BME280;39542;-34.932;138.594;2023-04-02T01:11:03;101462.80;;;19.75;49.32
53635;BME280;39542;-34.932;138.594;2023-04-02T01:11:59;101460.94;;;19.78;49.35
53635;BME280;39542;-34.932;138.594;2023-04-02T01:12:45;101460.90;;;19.75;49.23
53635;BME280;39542;-34.932;138.594;2023-04-02T01:13:28;101457.71;;;19.78;49.15
53635;BME280;39542;-34.932;138.594;2023-04-02T01:14:11;101458.45;;;19.77;49.26
53635;BME280;39542;-34.932;138.594;2023-04-02T01:14:53;101456.59;;;19.78;49.50
53635;BME280;39542;-34.932;138.594;2023-04-02T01:15:34;101454.16;;;19.78;49.16
53635;BME280;39542;-34.932;138.594;2023-04-02T01:16:17;101455.19;;;19.77;49.12
53635;BME280;39542;-34.932;138.594;2023-04-02T01:16:57;101460.77;;;19.75;49.21
53635;BME280;39542;-34.932;138.594;2023-04-02T01:17:43;101455.19;;;19.81;49.04
53635;BME280;39542;-34.932;138.594;2023-04-02T01:18:30;101458.29;;;19.78;49.25
53635;BME280;39542;-34.932;138.594;2023-04-02T01:19:20;101454.86;;;19.80;49.11
53635;BME280;39542;-34.932;138.594;2023-04-02T01:21:08;101453.53;;;19.84;49.01
53635;BME280;39542;-34.932;138.594;2023-04-02T01:21:53;101450.98;;;19.81;49.14
53635;BME280;39542;-34.932;138.594;2023-04-02T01:22:40;101454.93;;;19.77;49.30
53635;BME280;39542;-34.932;138.594;2023-04-02T01:23:22;101450.04;;;19.81;49.16
53635;BME280;39542;-34.932;138.594;2023-04-02T01:24:02;101452.43;;;19.82;49.10
53635;BME280;39542;-34.932;138.594;2023-04-02T01:24:37;101449.32;;;19.80;49.18
53635;BME280;39542;-34.932;138.594;2023-04-02T01:25:18;101448.04;;;19.79;49.18
53635;BME280;39542;-34.932;138.594;2023-04-02T01:25:59;101446.86;;;19.80;49.16
53635;BME280;39542;-34.932;138.594;2023-04-02T01:26:46;101447.59;;;19.79;49.18
53635;BME280;39542;-34.932;138.594;2023-04-02T01:27:27;101446.15;;;19.81;49.19
53635;BME280;39542;-34.932;138.594;2023-04-02T01:28:08;101446.93;;;19.79;49.19
53635;BME280;39542;-34.932;138.594;2023-04-02T01:28:59;101446.89;;;19.79;49.25
53635;BME280;39542;-34.932;138.594;2023-04-02T01:29:36;101446.89;;;19.77;49.41
53635;BME280;39542;-34.932;138.594;2023-04-02T01:30:13;101447.48;;;19.77;49.28
53635;BME280;39542;-34.932;138.594;2023-04-02T01:30:52;101447.16;;;19.76;49.34
53635;BME280;39542;-34.932;138.594;2023-04-02T01:31:28;101449.65;;;19.76;49.45
53635;BME280;39542;-34.932;138.594;2023-04-02T01:32:05;101448.64;;;19.80;49.25
53635;BME280;39542;-34.932;138.594;2023-04-02T01:32:41;101451.31;;;19.79;49.34
53635;BME280;39542;-34.932;138.594;2023-04-02T01:33:16;101446.90;;;19.79;49.31
53635;BME280;39542;-34.932;138.594;2023-04-02T01:33:51;101446.39;;;19.79;49.30
53635;BME280;39542;-34.932;138.594;2023-04-02T01:34:27;101447.22;;;19.79;49.33
53635;BME280;39542;-34.932;138.594;2023-04-02T01:35:01;101447.06;;;19.79;49.34
53635;BME280;39542;-34.932;138.594;2023-04-02T01:35:40;101444.80;;;19.79;49.35
53635;BME280;39542;-34.932;138.594;2023-04-02T01:36:20;101448.47;;;19.79;49.33
53635;BME280;39542;-34.932;138.594;2023-04-02T01:37:09;101446.76;;;19.78;49.33
53635;BME280;39542;-34.932;138.594;2023-04-02T01:37:51;101445.12;;;19.77;49.34
53635;BME280;39542;-34.932;138.594;2023-04-02T01:38:32;101441.06;;;19.80;49.27
53635;BME280;39542;-34.932;138.594;2023-04-02T01:39:13;101440.15;;;19.78;49.31
53635;BME280;39542;-34.932;138.594;2023-04-02T01:40:02;101439.61;;;19.78;49.29
53635;BME280;39542;-34.932;138.594;2023-04-02T01:40:40;101438.71;;;19.81;49.28
53635;BME280;39542;-34.932;138.594;2023-04-02T01:41:22;101436.28;;;19.81;49.35
53635;BME280;39542;-34.932;138.594;2023-04-02T01:42:04;101432.13;;;19.82;49.30
53635;BME280;39542;-34.932;138.594;2023-04-02T01:42:50;101428.83;;;19.83;49.30
53635;BME280;39542;-34.932;138.594;2023-04-02T01:43:31;101431.79;;;19.84;49.32
53635;BME280;39542;-34.932;138.594;2023-04-02T01:44:10;101430.63;;;19.84;49.32
53635;BME280;39542;-34.932;138.594;2023-04-02T01:44:50;101428.42;;;19.83;49.30
53635;BME280;39542;-34.932;138.594;2023-04-02T01:45:24;101428.27;;;19.83;49.41
53635;BME280;39542;-34.932;138.594;2023-04-02T01:45:59;101428.20;;;19.82;49.54
53635;BME280;39542;-34.932;138.594;2023-04-02T01:46:41;101429.69;;;19.83;49.34
53635;BME280;39542;-34.932;138.594;2023-04-02T01:47:17;101432.16;;;19.85;49.46
53635;BME280;39542;-34.932;138.594;2023-04-02T01:47:52;101428.40;;;19.86;49.37
53635;BME280;39542;-34.932;138.594;2023-04-02T01:48:30;101424.74;;;19.82;49.32
53635;BME280;39542;-34.932;138.594;2023-04-02T01:49:11;101426.63;;;19.81;49.47
53635;BME280;39542;-34.932;138.594;2023-04-02T01:49:47;101424.69;;;19.84;49.34
53635;BME280;39542;-34.932;138.594;2023-04-02T01:50:27;101424.14;;;19.80;49.37
53635;BME280;39542;-34.932;138.594;2023-04-02T01:51:05;101423.57;;;19.81;49.56
53635;BME280;39542;-34.932;138.594;2023-04-02T01:51:43;101425.34;;;19.81;49.62
53635;BME280;39542;-34.932;138.594;2023-04-02T01:52:25;101424.66;;;19.82;49.51
53635;BME280;39542;-34.932;138.594;2023-04-02T01:53:09;101422.93;;;19.84;49.39
53635;BME280;39542;-34.932;138.594;2023-04-02T01:53:44;101423.60;;;19.85;49.41
53635;BME280;39542;-34.932;138.594;2023-04-02T01:54:19;101422.62;;;19.84;49.32
53635;BME280;39542;-34.932;138.594;2023-04-02T01:54:54;101424.51;;;19.88;49.37
53635;BME280;39542;-34.932;138.594;2023-04-02T01:55:36;101422.93;;;19.86;49.29
53635;BME280;39542;-34.932;138.594;2023-04-02T01:56:12;101421.40;;;19.87;49.24
53635;BME280;39542;-34.932;138.594;2023-04-02T01:56:47;101420.90;;;19.85;49.31
53635;BME280;39542;-34.932;138.594;2023-04-02T01:57:21;101418.29;;;19.84;49.35
53635;BME280;39542;-34.932;138.594;2023-04-02T01:57:56;101418.38;;;19.81;49.43
53635;BME280;39542;-34.932;138.594;2023-04-02T01:58:32;101415.72;;;19.82;49.35
53635;BME280;39542;-34.932;138.594;2023-04-02T01:59:08;101416.74;;;19.82;49.38
53635;BME280;39542;-34.932;138.594;2023-04-02T01:59:43;101415.13;;;19.85;49.38
53635;BME280;39542;-34.932;138.594;2023-04-02T02:00:18;101416.26;;;19.86;49.33
53635;BME280;39542;-34.932;138.594;2023-04-02T02:00:58;101415.21;;;19.85;49.36
53635;BME280;39542;-34.932;138.594;2023-04-02T02:01:37;101413.91;;;19.85;49.35
53635;BME280;39542;-34.932;138.594;2023-04-02T02:02:14;101413.74;;;19.82;49.46
53635;BME280;39542;-34.932;138.594;2023-04-02T02:02:49;101412.08;;;19.83;49.39
53635;BME280;39542;-34.932;138.594;2023-04-02T02:03:24;101412.50;;;19.82;49.43
53635;BME280;39542;-34.932;138.594;2023-04-02T02:04:02;101408.13;;;19.82;49.38
53635;BME280;39542;-34.932;138.594;2023-04-02T02:04:37;101409.68;;;19.80;49.44
53635;BME280;39542;-34.932;138.594;2023-04-02T02:05:15;101410.77;;;19.80;49.50
53635;BME280;39542;-34.932;138.594;2023-04-02T02:05:50;101406.07;;;19.82;49.47
53635;BME280;39542;-34.932;138.594;2023-04-02T02:06:25;101405.48;;;19.82;49.48
53635;BME280;39542;-34.932;138.594;2023-04-02T02:07:00;101404.74;;;19.83;49.49
53635;BME280;39542;-34.932;138.594;2023-04-02T02:07:35;101403.99;;;19.84;49.46
53635;BME280;39542;-34.932;138.594;2023-04-02T02:08:22;101402.56;;;19.84;49.46
53635;BME280;39542;-34.932;138.594;2023-04-02T02:09:02;101403.33;;;19.83;49.57
53635;BME280;39542;-34.932;138.594;2023-04-02T02:09:37;101402.59;;;19.83;49.53
53635;BME280;39542;-34.932;138.594;2023-04-02T02:10:16;101403.27;;;19.83;49.46
53635;BME280;39542;-34.932;138.594;2023-04-02T02:10:50;101399.94;;;19.84;49.46
53635;BME280;39542;-34.932;138.594;2023-04-02T02:11:28;101400.26;;;19.86;49.49
53635;BME280;39542;-34.932;138.594;2023-04-02T02:12:03;101398.16;;;19.86;49.44
53635;BME280;39542;-34.932;138.594;2023-04-02T02:12:37;101398.55;;;19.86;49.49
53635;BME280;39542;-34.932;138.594;2023-04-02T02:13:14;101395.54;;;19.87;49.52
53635;BME280;39542;-34.932;138.594;2023-04-02T02:13:51;101394.91;;;19.86;49.53
53635;BME280;39542;-34.932;138.594;2023-04-02T02:14:28;101392.34;;;19.85;49.48
53635;BME280;39542;-34.932;138.594;2023-04-02T02:15:03;101390.91;;;19.86;49.48
53635;BME280;39542;-34.932;138.594;2023-04-02T02:15:37;101389.30;;;19.85;49.42
53635;BME280;39542;-34.932;138.594;2023-04-02T02:16:18;101388.89;;;19.85;49.42
53635;BME280;39542;-34.932;138.594;2023-04-02T02:16:55;101388.26;;;19.87;49.40
53635;BME280;39542;-34.932;138.594;2023-04-02T02:17:31;101390.91;;;19.85;49.42
53635;BME280;39542;-34.932;138.594;2023-04-02T02:18:06;101388.44;;;19.90;49.41
53635;BME280;39542;-34.932;138.594;2023-04-02T02:18:44;101385.75;;;19.88;49.49
53635;BME280;39542;-34.932;138.594;2023-04-02T02:19:25;101385.39;;;19.84;49.52
53635;BME280;39542;-34.932;138.594;2023-04-02T02:20:02;101382.84;;;19.85;49.51
53635;BME280;39542;-34.932;138.594;2023-04-02T02:20:36;101383.46;;;19.86;49.50
53635;BME280;39542;-34.932;138.594;2023-04-02T02:21:11;101382.92;;;19.86;49.52
53635;BME280;39542;-34.932;138.594;2023-04-02T02:21:53;101381.72;;;19.83;49.52
53635;BME280;39542;-34.932;138.594;2023-04-02T02:22:29;101381.17;;;19.83;49.48
53635;BME280;39542;-34.932;138.594;2023-04-02T02:23:04;101381.76;;;19.85;49.50
53635;BME280;39542;-34.932;138.594;2023-04-02T02:23:39;101382.04;;;19.85;49.51
53635;BME280;39542;-34.932;138.594;2023-04-02T02:24:18;101378.17;;;19.85;49.54
53635;BME280;39542;-34.932;138.594;2023-04-02T02:24:54;101376.61;;;19.85;49.51
53635;BME280;39542;-34.932;138.594;2023-04-02T02:25:32;101374.53;;;19.85;49.52
53635;BME280;39542;-34.932;138.594;2023-04-02T02:26:07;101373.56;;;19.87;49.48
53635;BME280;39542;-34.932;138.594;2023-04-02T02:26:45;101373.95;;;19.88;49.42
53635;BME280;39542;-34.932;138.594;2023-04-02T02:28:01;101374.78;;;19.89;49.45
53635;BME280;39542;-34.932;138.594;2023-04-02T02:28:39;101373.69;;;19.88;49.49
53635;BME280;39542;-34.932;138.594;2023-04-02T02:29:18;101372.10;;;19.87;49.51
53635;BME280;39542;-34.932;138.594;2023-04-02T02:29:57;101370.31;;;19.85;49.52
53635;BME280;39542;-34.932;138.594;2023-04-02T02:30:36;101369.93;;;19.89;49.47
53635;BME280;39542;-34.932;138.594;2023-04-02T02:31:15;101369.07;;;19.88;49.48
53635;BME280;39542;-34.932;138.594;2023-04-02T02:31:53;101366.10;;;19.87;49.47
53635;BME280;39542;-34.932;138.594;2023-04-02T02:32:30;101368.52;;;19.86;49.47
53635;BME280;39542;-34.932;138.594;2023-04-02T02:33:11;101366.70;;;19.87;49.51
53635;BME280;39542;-34.932;138.594;2023-04-02T02:33:50;101369.60;;;19.85;49.46
53635;BME280;39542;-34.932;138.594;2023-04-02T02:34:31;101367.75;;;19.86;49.50
53635;BME280;39542;-34.932;138.594;2023-04-02T02:35:14;101369.12;;;19.86;49.60
53635;BME280;39542;-34.932;138.594;2023-04-02T02:35:55;101368.85;;;19.87;49.67
53635;BME280;39542;-34.932;138.594;2023-04-02T02:36:34;101369.47;;;19.88;49.56
53635;BME280;39542;-34.932;138.594;2023-04-02T02:37:14;101367.80;;;19.89;49.51
53635;BME280;39542;-34.932;138.594;2023-04-02T02:37:56;101366.01;;;19.90;49.45
53635;BME280;39542;-34.932;138.594;2023-04-02T02:38:53;101363.85;;;19.89;49.47
53635;BME280;39542;-34.932;138.594;2023-04-02T02:39:35;101360.37;;;19.89;49.45
53635;BME280;39542;-34.932;138.594;2023-04-02T02:40:15;101360.16;;;19.88;49.53
53635;BME280;39542;-34.932;138.594;2023-04-02T02:40:55;101364.49;;;19.88;49.57
53635;BME280;39542;-34.932;138.594;2023-04-02T02:41:36;101360.26;;;19.89;49.53
53635;BME280;39542;-34.932;138.594;2023-04-02T02:42:16;101360.10;;;19.90;49.55
53635;BME280;39542;-34.932;138.594;2023-04-02T02:42:57;101360.44;;;19.91;49.53
53635;BME280;39542;-34.932;138.594;2023-04-02T02:43:34;101358.74;;;19.90;49.46
53635;BME280;39542;-34.932;138.594;2023-04-02T02:44:17;101360.86;;;19.92;49.54
53635;BME280;39542;-34.932;138.594;2023-04-02T02:44:55;101358.87;;;19.93;49.46
53635;BME280;39542;-34.932;138.594;2023-04-02T02:45:35;101359.01;;;19.90;49.55
53635;BME280;39542;-34.932;138.594;2023-04-02T02:46:15;101359.42;;;19.89;49.55
53635;BME280;39542;-34.932;138.594;2023-04-02T02:46:53;101360.89;;;19.91;49.51
53635;BME280;39542;-34.932;138.594;2023-04-02T02:47:30;101360.28;;;19.90;49.59
53635;BME280;39542;-34.932;138.594;2023-04-02T02:48:09;101358.17;;;19.93;49.55
53635;BME280;39542;-34.932;138.594;2023-04-02T02:48:45;101357.18;;;19.93;49.56
53635;BME280;39542;-34.932;138.594;2023-04-02T02:49:23;101355.71;;;19.91;49.56
53635;BME280;39542;-34.932;138.594;2023-04-02T02:50:00;101354.77;;;19.93;49.53
53635;BME280;39542;-34.932;138.594;2023-04-02T02:50:36;101351.39;;;19.94;49.53
53635;BME280;39542;-34.932;138.594;2023-04-02T02:51:16;101347.08;;;19.89;49.60
53635;BME280;39542;-34.932;138.594;2023-04-02T02:51:59;101348.97;;;19.92;49.65
53635;BME280;39542;-34.932;138.594;2023-04-02T02:52:36;101343.39;;;19.97;49.54
53635;BME280;39542;-34.932;138.594;2023-04-02T02:53:18;101345.20;;;19.94;49.60
53635;BME280;39542;-34.932;138.594;2023-04-02T02:53:56;101345.38;;;19.91;49.63
53635;BME280;39542;-34.932;138.594;2023-04-02T02:54:35;101343.79;;;19.90;49.67
53635;BME280;39542;-34.932;138.594;2023-04-02T02:55:12;101337.17;;;19.90;49.68
53635;BME280;39542;-34.932;138.594;2023-04-02T02:55:51;101339.58;;;19.89;49.75
53635;BME280;39542;-34.932;138.594;2023-04-02T02:56:30;101339.36;;;19.91;49.71
53635;BME280;39542;-34.932;138.594;2023-04-02T02:57:10;101337.39;;;19.91;49.69
53635;BME280;39542;-34.932;138.594;2023-04-02T02:57:49;101336.98;;;19.89;49.73
53635;BME280;39542;-34.932;138.594;2023-04-02T02:58:28;101332.65;;;19.89;49.72
53635;BME280;39542;-34.932;138.594;2023-04-02T02:59:05;101331.25;;;19.91;49.72
53635;BME280;39542;-34.932;138.594;2023-04-02T02:59:40;101327.18;;;19.92;49.70
53635;BME280;39542;-34.932;138.594;2023-04-02T03:00:16;101326.52;;;19.97;49.66
53635;BME280;39542;-34.932;138.594;2023-04-02T03:00:51;101324.59;;;19.96;49.64
53635;BME280;39542;-34.932;138.594;2023-04-02T03:01:28;101323.15;;;19.97;49.64
53635;BME280;39542;-34.932;138.594;2023-04-02T03:02:05;101322.95;;;19.96;49.61
53635;BME280;39542;-34.932;138.594;2023-04-02T03:02:40;101320.45;;;19.95;49.56
53635;BME280;39542;-34.932;138.594;2023-04-02T03:03:18;101319.28;;;19.94;49.61
53635;BME280;39542;-34.932;138.594;2023-04-02T03:03:54;101316.88;;;19.95;49.63
53635;BME280;39542;-34.932;138.594;2023-04-02T03:04:29;101316.80;;;19.94;49.64
53635;BME280;39542;-34.932;138.594;2023-04-02T03:05:04;101314.09;;;19.91;49.68
53635;BME280;39542;-34.932;138.594;2023-04-02T03:05:39;101313.08;;;19.93;49.65
53635;BME280;39542;-34.932;138.594;2023-04-02T03:06:16;101310.77;;;19.94;49.59
53635;BME280;39542;-34.932;138.594;2023-04-02T03:06:52;101308.50;;;19.97;49.60
53635;BME280;39542;-34.932;138.594;2023-04-02T03:07:27;101309.02;;;19.96;49.66
53635;BME280;39542;-34.932;138.594;2023-04-02T03:08:04;101307.97;;;19.96;49.68
53635;BME280;39542;-34.932;138.594;2023-04-02T03:08:43;101307.77;;;19.97;49.61
53635;BME280;39542;-34.932;138.594;2023-04-02T03:09:27;101307.81;;;19.96;49.62
53635;BME280;39542;-34.932;138.594;2023-04-02T03:10:09;101306.27;;;19.96;49.66
53635;BME280;39542;-34.932;138.594;2023-04-02T03:10:51;101303.40;;;19.95;49.72
53635;BME280;39542;-34.932;138.594;2023-04-02T03:11:32;101305.15;;;19.96;49.67
53635;BME280;39542;-34.932;138.594;2023-04-02T03:12:42;101303.43;;;19.96;49.71
53635;BME280;39542;-34.932;138.594;2023-04-02T03:13:22;101300.56;;;19.95;49.77
53635;BME280;39542;-34.932;138.594;2023-04-02T03:14:04;101302.67;;;19.93;49.79
53635;BME280;39542;-34.932;138.594;2023-04-02T03:14:47;101299.77;;;19.93;49.80
53635;BME280;39542;-34.932;138.594;2023-04-02T03:15:31;101302.08;;;19.94;49.89
53635;BME280;39542;-34.932;138.594;2023-04-02T03:16:10;101301.53;;;19.97;49.78
53635;BME280;39542;-34.932;138.594;2023-04-02T03:16:48;101299.83;;;19.97;49.77
53635;BME280;39542;-34.932;138.594;2023-04-02T03:17:29;101302.69;;;19.96;49.83
53635;BME280;39542;-34.932;138.594;2023-04-02T03:18:12;101300.83;;;19.97;49.70
53635;BME280;39542;-34.932;138.594;2023-04-02T03:18:52;101295.26;;;19.97;49.74
53635;BME280;39542;-34.932;138.594;2023-04-02T03:19:33;101295.35;;;19.96;49.80
53635;BME280;39542;-34.932;138.594;2023-04-02T03:20:16;101294.34;;;19.97;49.73
53635;BME280;39542;-34.932;138.594;2023-04-02T03:20:54;101293.97;;;19.97;49.69
53635;BME280;39542;-34.932;138.594;2023-04-02T03:21:35;101288.52;;;19.97;49.70